ADDS METAR Data INFO
IDs: Format: Raw Decoded Include TAF

Data at: 1121 UTC 21 Feb 2018

KJMR 201516Z AUTO 33009KT 7SM SCT006 OVC013 M11/M13 A2988 RMK AO2
KJMR 201455Z AUTO 35008KT 4SM BR OVC006 M11/M13 A2989 RMK AO2 P0001
KJMR 201435Z AUTO 35007KT 3SM -SN SCT003 OVC008 M11/M13 A2988 RMK AO2 P0001
KJMR 201415Z AUTO 35003KT 10SM SCT001 SCT005 SCT027 M11/M13 A2991 RMK AO2 P0001
KJMR 201355Z AUTO 36005KT 10SM BKN048 M11/M13 A2989 RMK AO2
KJMR 201335Z AUTO 34004KT 10SM OVC048 M11/M13 A2989 RMK AO2
KJMR 201315Z AUTO 35004KT 10SM OVC050 M11/M13 A2988 RMK AO2
KJMR 201255Z AUTO 35005KT 10SM SCT002 OVC050 M11/M13 A2987 RMK AO2
KJMR 201235Z AUTO 35005KT 7SM -SN SCT002 SCT040 BKN050 M11/M12 A2987 RMK AO2
KJMR 201215Z AUTO 35005KT 10SM SCT050 M10/M12 A2987 RMK AO2
KJMR 201155Z AUTO 36003KT 5SM -SN BKN002 M10/M12 A2988 RMK AO2 P0001
KJMR 201136Z AUTO 01004KT 2 1/2SM -SN OVC002 M10/M12 A2986 RMK AO2 P0001
KJMR 201115Z AUTO 35007KT 1 1/4SM -SN OVC002 M10/M11 A2990 RMK AO2
KJMR 201055Z AUTO 35004KT 3/4SM SN OVC002 M08/M10 A2990 RMK AO2 P0001
KJMR 201035Z AUTO 34005KT 3/4SM SN OVC002 M08/M10 A2991 RMK AO2
KJMR 201015Z AUTO 36003KT 2SM -SN BKN006 OVC010 M08/M10 A2988 RMK AO2
KJMR 200955Z AUTO 03005KT 4SM -SN OVC010 M08/M10 A2987 RMK AO2
KJMR 200935Z AUTO 01004KT 5SM UP OVC010 M08/M10 A2986 RMK AO2
KJMR 200915Z AUTO 05004KT 5SM -SN OVC010 M08/M10 A2985 RMK AO2
KJMR 200855Z AUTO 03004KT 7SM OVC010 M08/M10 A2987 RMK AO2
KJMR 200835Z AUTO 00000KT 10SM OVC010 M08/M10 A2989 RMK AO2
KJMR 200815Z AUTO 03003KT 7SM OVC010 M09/M10 A2990 RMK AO2
KJMR 200755Z AUTO 03003KT 10SM SCT006 OVC010 M10/M11 A2989 RMK AO2
KJMR 200735Z AUTO 01003KT 10SM OVC010 M10/M11 A2990 RMK AO2
KJMR 200715Z AUTO 00000KT 10SM OVC010 M10/M11 A2992 RMK AO2
KJMR 200655Z AUTO 02003KT 10SM OVC012 M10/M11 A2993 RMK AO2
KJMR 200635Z AUTO 36004KT 7SM BKN007 OVC012 M10/M11 A2994 RMK AO2
KJMR 200615Z AUTO 05004KT 7SM SCT008 OVC014 M10/M11 A2991 RMK AO2
KJMR 200555Z AUTO 05004KT 5SM BR SCT006 OVC014 M10/M11 A2993 RMK AO2
KJMR 200535Z AUTO 04004KT 5SM -SN SCT006 OVC014 M10/M12 A2995 RMK AO2
KJMR 200515Z AUTO 02003KT 5SM -SN SCT003 BKN010 OVC018 M10/M12 A2996 RMK AO2
KJMR 200455Z AUTO 01003KT 7SM -SN SCT003 BKN018 M10/M12 A2997 RMK AO2
KJMR 200435Z AUTO 01004KT 10SM -SN OVC020 M10/M12 A2997 RMK AO2
KJMR 200416Z AUTO 01003KT 10SM -SN OVC022 M09/M11 A2997 RMK AO2
KJMR 200355Z AUTO 02003KT 7SM -SN BKN022 BKN032 M08/M11 A2997 RMK AO2
KJMR 200335Z AUTO 04005KT 10SM -SN SCT003 BKN020 BKN034 M08/M11 A2998 RMK AO2
KJMR 200315Z AUTO 05008KT 020V090 10SM -SN SCT001 SCT017 BKN034 M08/M11 A2997 RMK AO2
KJMR 200255Z AUTO 03008KT 010V070 10SM -SN SCT001 BKN015 BKN022 M08/M11 A2997 RMK AO2
KJMR 200235Z AUTO 03005KT 10SM -SN SCT001 BKN016 BKN022 M08/M11 A2998 RMK AO2
KJMR 200216Z AUTO 03006KT 7SM -SN BKN001 OVC016 M08/M11 A2998 RMK AO2
KJMR 200155Z AUTO 03007KT 7SM -SN BKN001 BKN014 OVC019 M08/M11 A2999 RMK AO2
KJMR 200136Z AUTO 04005KT 4SM -SN BKN006 BKN016 OVC033 M08/M11 A2999 RMK AO2
KJMR 200115Z AUTO 04007KT 360V070 4SM -SN OVC006 M08/M11 A2999 RMK AO2
KJMR 200055Z AUTO 04006G14KT 7SM -SN BKN004 OVC010 M08/M11 A2999 RMK AO2 P0001
KJMR 200035Z AUTO 04008KT 010V070 4SM -SN OVC004 M08/M11 A2999 RMK AO2 P0001
KJMR 200016Z AUTO 04006KT 2SM -SN OVC006 M08/M11 A2999 RMK AO2 P0001
KJMR 192355Z AUTO 04009G16KT 360V060 4SM -SN BKN004 OVC009 M08/M11 A2999 RMK AO2
KJMR 192335Z AUTO 03008KT 350V070 2SM -SN OVC006 M08/M11 A2998 RMK AO2